Time;durP1;ratioP1;P1;durP2;ratioP2;P2;SDS_P1;SDS_P2;PMS_P1;PMS_P2;Temp;Humidity;BMP_temperature;BMP_pressure;BME280_temperature;BME280_humidity;BME280_pressure;Samples;Min_cycle;Max_cycle;Signal;HPM_P1;HPM_P2
2021/04/17 00:01:33;;;;;;;;;;;;;;;21.51;23.91;98242.94;5069275;28;932;-84
2021/04/17 00:03:59;;;;;;;;;;;;;;;21.54;23.62;98230.72;5085722;28;701;-84
2021/04/17 00:06:24;;;;;;;;;;;;;;;21.57;23.70;98241.19;5086124;28;622;-84
2021/04/17 00:08:50;;;;;;;;;;;;;;;21.97;23.30;98229.72;5068410;28;636;-84
2021/04/17 00:11:15;;;;;;;;;;;;;;;22.33;22.42;98236.13;5085899;28;1076;-85
2021/04/17 00:13:41;;;;;;;;;;;;;;;22.05;22.72;98231.94;5084840;28;926;-84
2021/04/17 00:16:06;;;;;;;;;;;;;;;21.80;23.28;98238.19;5069717;28;998;-85
2021/04/17 00:18:32;;;;;;;;;;;;;;;21.57;23.46;98236.31;5068428;28;1287;-84
2021/04/17 00:20:57;;;;;;;;;;;;;;;21.57;23.64;98236.31;5086393;28;2074;-85
2021/04/17 00:23:22;;;;;;;;;;;;;;;21.54;23.84;98227.88;5085470;28;793;-84
2021/04/17 00:25:48;;;;;;;;;;;;;;;21.48;23.51;98230.44;5085355;28;960;-84
2021/04/17 00:28:13;;;;;;;;;;;;;;;21.40;23.74;98225.38;5084572;28;851;-84
2021/04/17 00:30:39;;;;;;;;;;;;;;;21.47;23.80;98236.56;5068779;28;952;-84
2021/04/17 00:33:05;;;;;;;;;;;;;;;21.47;23.80;98231.69;5085166;28;668;-84
2021/04/17 00:35:30;;;;;;;;;;;;;;;21.47;23.86;98225.22;5102733;28;677;-84
2021/04/17 00:37:56;;;;;;;;;;;;;;;21.84;23.47;98221.91;5085789;28;738;-84
2021/04/17 00:40:21;;;;;;;;;;;;;;;22.29;22.78;98221.25;5104843;28;1963;-84
2021/04/17 00:42:47;;;;;;;;;;;;;;;22.46;22.38;98229.72;5072464;28;986;-84
2021/04/17 00:45:12;;;;;;;;;;;;;;;21.99;23.04;98221.56;5106732;28;936;-84
2021/04/17 00:47:38;;;;;;;;;;;;;;;21.78;23.42;98217.22;5089629;28;700;-84
2021/04/17 00:50:03;;;;;;;;;;;;;;;21.65;23.34;98224.81;5071935;28;1334;-84
2021/04/17 00:52:29;;;;;;;;;;;;;;;21.59;23.42;98216.84;5072077;28;1181;-84
2021/04/17 00:54:56;;;;;;;;;;;;;;;21.53;23.61;98217.81;5071433;28;917;-84
2021/04/17 00:57:22;;;;;;;;;;;;;;;21.36;24.08;98213.34;5071614;28;1169;-84
2021/04/17 00:59:47;;;;;;;;;;;;;;;21.43;23.80;98213.19;5088426;28;1952;-84
2021/04/17 01:02:13;;;;;;;;;;;;;;;21.45;24.08;98213.53;5088763;28;780;-84
2021/04/17 01:04:39;;;;;;;;;;;;;;;21.48;23.69;98204.16;5088486;28;666;-84
2021/04/17 01:07:08;;;;;;;;;;;;;;;21.51;23.75;98214.63;5055647;28;1310;-85
2021/04/17 01:09:36;;;;;;;;;;;;;;;21.56;23.73;98212.06;5071693;28;992;-85
2021/04/17 01:12:04;;;;;;;;;;;;;;;21.46;23.85;98215.16;5072176;28;1484;-84
2021/04/17 01:14:30;;;;;;;;;;;;;;;21.39;23.96;98212.47;5088796;28;1311;-84
2021/04/17 01:16:55;;;;;;;;;;;;;;;21.95;23.25;98209.53;5088743;28;666;-84
2021/04/17 01:19:30;;;;;;;;;;;;;;;22.40;22.67;98206.00;5088563;28;1878;-85
2021/04/17 01:21:59;;;;;;;;;;;;;;;22.01;22.84;98213.41;5073204;28;674;-85
2021/04/17 01:24:24;;;;;;;;;;;;;;;21.69;23.63;98206.50;5089597;28;996;-85
2021/04/17 01:26:53;;;;;;;;;;;;;;;21.54;23.81;98213.72;5073041;28;848;-84
2021/04/17 01:29:19;;;;;;;;;;;;;;;21.54;23.76;98208.06;5073361;28;983;-85
2021/04/17 01:31:44;;;;;;;;;;;;;;;21.61;23.49;98207.91;5073219;28;830;-84
2021/04/17 01:34:09;;;;;;;;;;;;;;;21.53;23.98;98217.81;5089710;28;750;-85
2021/04/17 01:36:36;;;;;;;;;;;;;;;21.57;23.61;98210.81;5089909;28;657;-85
2021/04/17 01:39:04;;;;;;;;;;;;;;;21.53;23.64;98214.97;5088594;28;1898;-85
2021/04/17 01:41:30;;;;;;;;;;;;;;;21.52;23.82;98213.38;5089457;28;965;-85
2021/04/17 01:43:58;;;;;;;;;;;;;;;21.82;23.62;98206.63;5073046;28;876;-85
2021/04/17 01:46:27;;;;;;;;;;;;;;;22.32;22.85;98211.84;5074334;28;1455;-85
2021/04/17 01:48:55;;;;;;;;;;;;;;;22.29;22.55;98207.06;5072337;28;778;-85
2021/04/17 01:51:20;;;;;;;;;;;;;;;21.89;23.37;98205.63;5089283;28;594;-85
2021/04/17 01:53:46;;;;;;;;;;;;;;;21.64;23.71;98212.69;5088511;28;1037;-85
2021/04/17 01:56:11;;;;;;;;;;;;;;;21.53;23.74;98209.31;5073192;28;1197;-85
2021/04/17 01:58:39;;;;;;;;;;;;;;;21.55;23.78;98209.66;5088712;28;1006;-85
2021/04/17 02:01:04;;;;;;;;;;;;;;;21.57;23.91;98212.88;5107101;28;1974;-85
2021/04/17 02:03:30;;;;;;;;;;;;;;;21.53;23.64;98217.81;5106034;28;653;-85
2021/04/17 02:05:55;;;;;;;;;;;;;;;21.37;24.21;98209.28;5072694;28;856;-85
2021/04/17 02:08:20;;;;;;;;;;;;;;;21.44;24.03;98215.56;5071423;28;843;-85
2021/04/17 02:10:46;;;;;;;;;;;;;;;21.40;24.09;98220.53;5089319;28;954;-84
2021/04/17 02:13:12;;;;;;;;;;;;;;;21.44;24.20;98217.59;5106343;28;987;-85
2021/04/17 02:15:37;;;;;;;;;;;;;;;21.43;24.09;98213.19;5072520;28;653;-85
2021/04/17 02:18:23;;;;;;;;;;;;;;;21.73;23.49;98214.91;5072102;28;1424;-85
2021/04/17 02:20:51;;;;;;;;;;;;;;;22.09;22.83;98209.97;5057942;28;1973;-85
2021/04/17 02:23:16;;;;;;;;;;;;;;;22.39;22.65;98210.06;5070638;28;1308;-84
2021/04/17 02:25:42;;;;;;;;;;;;;;;21.93;23.44;98206.34;5087711;28;902;-84
2021/04/17 02:28:07;;;;;;;;;;;;;;;21.59;23.73;98205.50;5070227;28;1036;-85
2021/04/17 02:30:35;;;;;;;;;;;;;;;21.61;24.00;98202.25;5087804;28;637;-85
2021/04/17 02:33:00;;;;;;;;;;;;;;;21.56;23.83;98216.94;5087538;28;792;-84
2021/04/17 02:35:26;;;;;;;;;;;;;;;21.45;23.73;98199.38;5071280;28;1170;-84
2021/04/17 02:37:51;;;;;;;;;;;;;;;21.53;24.09;98209.31;5086946;28;1171;-84
2021/04/17 02:40:17;;;;;;;;;;;;;;;21.51;24.06;98197.63;5086856;28;1902;-85
2021/04/17 02:42:43;;;;;;;;;;;;;;;21.43;24.09;98199.03;5054527;28;1170;-85
2021/04/17 02:45:08;;;;;;;;;;;;;;;21.40;23.78;98203.56;5104743;28;673;-85
2021/04/17 02:47:34;;;;;;;;;;;;;;;21.47;23.89;98185.59;5086519;28;779;-85
2021/04/17 02:49:59;;;;;;;;;;;;;;;21.44;24.01;98192.13;5086830;28;797;-85
2021/04/17 02:52:25;;;;;;;;;;;;;;;21.59;23.99;98188.53;5087893;28;1115;-85
2021/04/17 02:54:51;;;;;;;;;;;;;;;22.09;23.14;98186.50;5087132;28;861;-85
2021/04/17 02:57:16;;;;;;;;;;;;;;;22.34;22.74;98186.69;5060093;28;1156;-84
2021/04/17 02:59:42;;;;;;;;;;;;;;;22.02;23.41;98183.84;5062661;28;1919;-83
2021/04/17 03:02:07;;;;;;;;;;;;;;;21.73;23.58;98175.28;5044314;28;791;-83
2021/04/17 03:04:33;;;;;;;;;;;;;;;21.65;23.80;98173.84;5062713;28;817;-83
2021/04/17 03:06:59;;;;;;;;;;;;;;;21.54;23.65;98168.44;5064114;28;937;-84
2021/04/17 03:09:24;;;;;;;;;;;;;;;21.50;23.86;98168.53;5030782;28;1176;-85
2021/04/17 03:11:50;;;;;;;;;;;;;;;21.57;24.03;98181.72;5047517;28;907;-85
2021/04/17 03:14:15;;;;;;;;;;;;;;;21.52;24.13;98187.91;5047546;28;837;-85
2021/04/17 03:16:41;;;;;;;;;;;;;;;21.51;23.84;98175.00;5047624;28;1328;-85
2021/04/17 03:19:06;;;;;;;;;;;;;;;21.50;23.86;98179.84;5047078;28;1987;-85
2021/04/17 03:21:32;;;;;;;;;;;;;;;21.44;24.11;98175.13;5063611;28;983;-85
2021/04/17 03:23:57;;;;;;;;;;;;;;;21.32;24.23;98173.81;5063099;28;925;-85
2021/04/17 03:26:22;;;;;;;;;;;;;;;21.47;24.08;98177.09;5047302;28;1471;-85
2021/04/17 03:28:48;;;;;;;;;;;;;;;21.45;24.27;98188.06;5046513;28;1190;-84
2021/04/17 03:31:13;;;;;;;;;;;;;;;21.36;24.29;98180.19;5047472;28;961;-85
2021/04/17 03:33:39;;;;;;;;;;;;;;;22.05;23.35;98182.97;5063542;28;634;-85
2021/04/17 03:36:05;;;;;;;;;;;;;;;22.39;23.00;98181.72;5047686;28;1142;-85
2021/04/17 03:38:30;;;;;;;;;;;;;;;21.97;23.43;98187.22;5062801;28;898;-85
2021/04/17 03:40:56;;;;;;;;;;;;;;;21.68;23.64;98195.63;5030462;28;1898;-84
2021/04/17 03:43:21;;;;;;;;;;;;;;;21.59;24.03;98188.53;5062941;28;742;-85
2021/04/17 03:45:47;;;;;;;;;;;;;;;21.58;23.94;98201.09;5063692;28;666;-85
2021/04/17 03:48:12;;;;;;;;;;;;;;;21.51;24.23;98203.31;5030038;28;790;-85
2021/04/17 03:50:38;;;;;;;;;;;;;;;21.43;24.33;98207.53;5063206;28;891;-85
2021/04/17 03:53:03;;;;;;;;;;;;;;;21.50;24.20;98207.34;5046393;28;1216;-85
2021/04/17 03:55:29;;;;;;;;;;;;;;;21.42;24.19;98214.44;5062925;28;976;-85
2021/04/17 03:57:54;;;;;;;;;;;;;;;21.52;23.89;98222.66;5062810;28;1204;-84
2021/04/17 04:00:20;;;;;;;;;;;;;;;22.07;23.55;98223.81;5046345;28;1918;-85
2021/04/17 04:02:46;;;;;;;;;;;;;;;22.36;23.27;98218.22;5030100;28;1170;-85
2021/04/17 04:05:12;;;;;;;;;;;;;;;21.81;23.66;98222.00;5063254;28;872;-85
2021/04/17 04:07:38;;;;;;;;;;;;;;;21.64;24.19;98224.00;5062944;28;918;-85
2021/04/17 04:10:04;;;;;;;;;;;;;;;21.57;24.08;98224.19;5062330;28;977;-84
2021/04/17 04:12:29;;;;;;;;;;;;;;;21.77;24.02;98232.63;5046263;28;863;-85
2021/04/17 04:14:55;;;;;;;;;;;;;;;22.19;23.25;98236.47;5045620;28;889;-85
2021/04/17 04:17:20;;;;;;;;;;;;;;;22.34;23.08;98234.88;5063421;28;614;-85
2021/04/17 04:19:46;;;;;;;;;;;;;;;21.79;24.08;98230.16;5045336;28;1906;-85
2021/04/17 04:22:11;;;;;;;;;;;;;;;21.58;24.10;98231.44;5045833;28;903;-85
2021/04/17 04:24:37;;;;;;;;;;;;;;;21.61;24.23;98227.75;5062504;28;822;-85
2021/04/17 04:27:02;;;;;;;;;;;;;;;21.58;24.29;98226.56;5063226;28;623;-85
2021/04/17 04:29:28;;;;;;;;;;;;;;;21.49;24.59;98217.09;5029537;28;1464;-85
2021/04/17 04:31:53;;;;;;;;;;;;;;;21.58;24.40;98214.44;5063342;28;749;-84
2021/04/17 04:34:19;;;;;;;;;;;;;;;21.56;24.16;98211.28;5045500;28;823;-84
2021/04/17 04:36:44;;;;;;;;;;;;;;;21.60;24.47;98206.31;5062418;28;978;-85
2021/04/17 04:39:10;;;;;;;;;;;;;;;21.59;24.34;98201.88;5062352;28;1894;-85
2021/04/17 04:41:35;;;;;;;;;;;;;;;21.57;24.46;98202.34;5047120;28;1323;-85
2021/04/17 04:44:03;;;;;;;;;;;;;;;21.44;24.39;98197.78;5045593;28;1193;-85
2021/04/17 04:46:29;;;;;;;;;;;;;;;21.41;24.56;98216.47;5046458;28;602;-85
2021/04/17 04:48:55;;;;;;;;;;;;;;;21.51;24.53;98214.63;5061819;28;977;-85
2021/04/17 04:51:20;;;;;;;;;;;;;;;21.52;24.51;98222.66;5045979;28;972;-85
2021/04/17 04:53:46;;;;;;;;;;;;;;;21.78;24.28;98220.84;5045714;28;1020;-85
2021/04/17 04:56:11;;;;;;;;;;;;;;;22.26;23.56;98210.78;5062861;28;831;-85
2021/04/17 04:58:36;;;;;;;;;;;;;;;22.48;23.08;98215.88;5044582;28;974;-85
2021/04/17 05:01:02;;;;;;;;;;;;;;;21.92;24.05;98218.94;5062796;28;1914;-85
2021/04/17 05:03:27;;;;;;;;;;;;;;;21.67;24.08;98211.03;5061881;28;1172;-85
2021/04/17 05:05:53;;;;;;;;;;;;;;;21.57;24.51;98210.81;5062082;28;852;-85
2021/04/17 05:08:18;;;;;;;;;;;;;;;21.49;24.64;98211.41;5061427;28;873;-84
2021/04/17 05:10:44;;;;;;;;;;;;;;;21.37;24.91;98209.28;5063202;28;670;-85
2021/04/17 05:13:09;;;;;;;;;;;;;;;21.39;24.55;98206.78;5061551;28;622;-85
2021/04/17 05:15:35;;;;;;;;;;;;;;;21.87;24.15;98203.25;5062483;28;654;-85
2021/04/17 05:18:00;;;;;;;;;;;;;;;22.19;23.62;98213.81;5045151;28;823;-85
2021/04/17 05:20:26;;;;;;;;;;;;;;;22.12;23.65;98213.97;5061835;28;1961;-85
2021/04/17 05:22:51;;;;;;;;;;;;;;;21.71;24.33;98212.53;5061822;28;875;-85
2021/04/17 05:25:17;;;;;;;;;;;;;;;21.64;24.59;98215.53;5046095;28;624;-85
2021/04/17 05:27:42;;;;;;;;;;;;;;;21.58;24.43;98214.44;5049068;28;771;-85
2021/04/17 05:30:08;;;;;;;;;;;;;;;21.89;24.26;98216.97;5049368;28;1205;-85
2021/04/17 05:32:33;;;;;;;;;;;;;;;22.23;23.74;98225.06;5065619;28;861;-85
2021/04/17 05:34:59;;;;;;;;;;;;;;;21.95;23.93;98221.66;5065752;28;1024;-85
2021/04/17 05:37:24;;;;;;;;;;;;;;;21.55;24.49;98220.97;5049087;28;1141;-85
2021/04/17 05:39:49;;;;;;;;;;;;;;;21.45;24.52;98227.69;5065034;28;1977;-85
2021/04/17 05:42:15;;;;;;;;;;;;;;;21.46;24.60;98234.97;5066273;28;705;-85
2021/04/17 05:44:40;;;;;;;;;;;;;;;21.36;24.78;98233.16;5064868;28;904;-84
2021/04/17 05:47:12;;;;;;;;;;;;;;;21.48;24.64;98227.63;5065149;28;935;-85
2021/04/17 05:49:37;;;;;;;;;;;;;;;21.35;24.97;98231.53;5064364;28;979;-84
2021/04/17 05:52:03;;;;;;;;;;;;;;;21.74;24.48;98228.63;5065558;28;834;-84
2021/04/17 05:54:29;;;;;;;;;;;;;;;22.26;23.61;98241.97;5048247;28;686;-85
2021/04/17 05:56:54;;;;;;;;;;;;;;;22.44;23.11;98240.72;5069822;28;936;-84
2021/04/17 05:59:19;;;;;;;;;;;;;;;21.97;23.84;98229.72;5088967;28;1988;-85
2021/04/17 06:01:45;;;;;;;;;;;;;;;21.69;24.53;98239.69;5088747;28;900;-83
2021/04/17 06:04:10;;;;;;;;;;;;;;;21.72;24.22;98236.78;5106132;28;881;-85
2021/04/17 06:06:36;;;;;;;;;;;;;;;21.54;24.59;98237.19;5088587;28;841;-84
2021/04/17 06:09:02;;;;;;;;;;;;;;;21.40;24.96;98236.69;5088278;28;589;-85
2021/04/17 06:11:27;;;;;;;;;;;;;;;21.28;25.01;98236.09;5071909;28;650;-85
2021/04/17 06:13:52;;;;;;;;;;;;;;;21.39;25.16;98237.94;5088060;28;617;-85
2021/04/17 06:16:18;;;;;;;;;;;;;;;21.46;24.85;98227.25;5088693;28;1001;-85
2021/04/17 06:18:43;;;;;;;;;;;;;;;21.44;24.72;98221.22;5070343;28;894;-85
2021/04/17 06:21:11;;;;;;;;;;;;;;;22.01;24.18;98219.88;5071739;28;1973;-85
2021/04/17 06:23:36;;;;;;;;;;;;;;;22.35;23.58;98216.63;5070927;28;865;-85
2021/04/17 06:26:02;;;;;;;;;;;;;;;21.99;23.78;98221.56;5055770;28;1295;-85
2021/04/17 06:28:28;;;;;;;;;;;;;;;21.70;24.25;98221.47;5070480;28;842;-85
2021/04/17 06:30:53;;;;;;;;;;;;;;;21.69;24.50;98232.00;5071010;28;1297;-85
2021/04/17 06:33:19;;;;;;;;;;;;;;;21.67;24.40;98228.81;5087239;28;970;-85
2021/04/17 06:35:44;;;;;;;;;;;;;;;21.56;24.69;98229.06;5105720;28;940;-85
2021/04/17 06:38:13;;;;;;;;;;;;;;;21.46;24.93;98220.81;5086688;28;654;-84
2021/04/17 06:40:38;;;;;;;;;;;;;;;21.78;24.50;98232.19;5071837;28;1963;-85
2021/04/17 06:43:04;;;;;;;;;;;;;;;22.24;23.88;98232.31;5071145;28;895;-85
2021/04/17 06:45:30;;;;;;;;;;;;;;;22.10;23.99;98233.44;5071067;28;1165;-85
2021/04/17 06:47:56;;;;;;;;;;;;;;;21.70;24.56;98222.25;5087879;28;850;-84
2021/04/17 06:50:21;;;;;;;;;;;;;;;21.72;24.30;98225.44;5071025;28;968;-85
2021/04/17 06:52:47;;;;;;;;;;;;;;;21.49;24.70;98231.25;5088006;28;606;-85
2021/04/17 06:55:13;;;;;;;;;;;;;;;21.49;24.74;98228.41;5087579;28;1273;-85
2021/04/17 06:57:39;;;;;;;;;;;;;;;21.97;24.18;98230.53;5071619;28;1200;-85
2021/04/17 07:00:08;;;;;;;;;;;;;;;22.42;23.57;98238.31;5087182;28;1971;-86
2021/04/17 07:02:34;;;;;;;;;;;;;;;22.05;23.81;98243.25;5087592;28;913;-85
2021/04/17 07:04:59;;;;;;;;;;;;;;;21.65;24.71;98245.44;5104954;28;978;-85
2021/04/17 07:07:25;;;;;;;;;;;;;;;21.57;24.73;98246.84;5054543;28;1189;-85
2021/04/17 07:09:51;;;;;;;;;;;;;;;21.54;24.85;98242.03;5087070;28;769;-85
2021/04/17 07:12:16;;;;;;;;;;;;;;;21.54;24.50;98236.38;5070864;28;626;-84
2021/04/17 07:14:46;;;;;;;;;;;;;;;21.48;24.90;98243.81;5070263;28;1157;-85
2021/04/17 07:17:11;;;;;;;;;;;;;;;21.50;24.87;98241.31;5086851;28;831;-85
2021/04/17 07:19:43;;;;;;;;;;;;;;;21.48;24.99;98249.47;5086284;28;1967;-85
2021/04/17 07:22:15;;;;;;;;;;;;;;;22.00;24.10;98252.28;5087521;28;860;-85
2021/04/17 07:24:41;;;;;;;;;;;;;;;22.27;23.68;98248.41;5104606;28;654;-85
2021/04/17 07:27:06;;;;;;;;;;;;;;;22.44;23.69;98247.19;5070581;28;690;-85
2021/04/17 07:29:39;;;;;;;;;;;;;;;22.31;23.80;98237.78;5086204;28;1005;-85
2021/04/17 07:32:04;;;;;;;;;;;;;;;21.89;24.27;98233.97;5086576;28;863;-85
2021/04/17 07:34:30;;;;;;;;;;;;;;;21.70;24.63;98232.78;5069304;28;946;-85
2021/04/17 07:36:56;;;;;;;;;;;;;;;21.69;24.72;98226.31;5087227;28;681;-85
2021/04/17 07:39:31;;;;;;;;;;;;;;;21.58;24.80;98214.44;5086194;28;1882;-85
2021/04/17 07:42:04;;;;;;;;;;;;;;;21.49;25.14;98234.06;5104735;28;624;-84
2021/04/17 07:44:30;;;;;;;;;;;;;;;21.43;25.20;98218.84;5085758;28;912;-85
2021/04/17 07:46:56;;;;;;;;;;;;;;;21.53;24.97;98217.81;5086689;28;901;-85
2021/04/17 07:49:22;;;;;;;;;;;;;;;21.51;25.06;98214.63;5104174;28;714;-85
2021/04/17 07:52:12;;;;;;;;;;;;;;;21.44;24.91;98215.56;5071296;28;1345;-85
2021/04/17 07:54:38;;;;;;;;;;;;;;;21.51;25.07;98215.44;5070158;28;753;-85
2021/04/17 07:57:05;;;;;;;;;;;;;;;21.53;24.95;98220.63;5069671;28;1531;-85
2021/04/17 07:59:30;;;;;;;;;;;;;;;21.53;25.19;98212.13;5085300;28;1893;-85
2021/04/17 08:01:56;;;;;;;;;;;;;;;21.74;24.61;98205.19;5086210;28;904;-84
2021/04/17 08:04:26;;;;;;;;;;;;;;;22.32;23.86;98206.16;5069251;28;1263;-85
2021/04/17 08:06:52;;;;;;;;;;;;;;;22.21;24.05;98202.81;5069909;28;970;-85
2021/04/17 08:09:18;;;;;;;;;;;;;;;21.83;24.33;98192.00;5052808;28;1345;-85
2021/04/17 08:11:45;;;;;;;;;;;;;;;21.64;24.76;98184.38;5053844;28;1171;-85
2021/04/17 08:14:10;;;;;;;;;;;;;;;21.59;25.06;98182.84;5069499;28;878;-85
2021/04/17 08:16:36;;;;;;;;;;;;;;;21.60;24.90;98178.00;5070047;28;1134;-85
2021/04/17 08:19:01;;;;;;;;;;;;;;;22.04;24.33;98181.38;5068545;28;935;-85
2021/04/17 08:21:36;;;;;;;;;;;;;;;22.44;23.69;98178.34;5086629;28;1910;-85
2021/04/17 08:24:10;;;;;;;;;;;;;;;21.99;24.47;98170.56;5069383;28;757;-85
2021/04/17 08:26:36;;;;;;;;;;;;;;;21.79;24.75;98168.63;5069837;28;814;-85
2021/04/17 08:29:01;;;;;;;;;;;;;;;21.61;25.02;98168.28;5085330;28;872;-85
2021/04/17 08:31:29;;;;;;;;;;;;;;;21.64;25.01;98167.38;5085957;28;872;-85
2021/04/17 08:34:04;;;;;;;;;;;;;;;22.22;24.26;98173.22;5068829;28;832;-84
2021/04/17 08:36:30;;;;;;;;;;;;;;;22.48;23.83;98164.84;5103737;28;669;-85
2021/04/17 08:38:55;;;;;;;;;;;;;;;21.91;24.73;98154.97;5085441;28;743;-84
2021/04/17 08:41:37;;;;;;;;;;;;;;;21.71;24.75;98161.56;5069590;28;1902;-85
2021/04/17 08:44:22;;;;;;;;;;;;;;;21.61;25.17;98156.16;5085517;28;924;-85
2021/04/17 08:46:50;;;;;;;;;;;;;;;21.56;25.23;98149.00;5086316;28;979;-85
2021/04/17 08:49:20;;;;;;;;;;;;;;;21.53;25.29;98155.53;5085799;28;688;-85
2021/04/17 08:51:46;;;;;;;;;;;;;;;21.53;25.09;98161.19;5086156;28;754;-85
2021/04/17 08:54:12;;;;;;;;;;;;;;;21.47;25.18;98158.09;5084793;28;864;-85
2021/04/17 08:56:54;;;;;;;;;;;;;;;21.51;25.46;98158.00;5085372;28;845;-85
2021/04/17 08:59:20;;;;;;;;;;;;;;;21.49;25.51;98154.81;5084909;28;1980;-84
2021/04/17 09:01:45;;;;;;;;;;;;;;;21.48;25.33;98158.88;5088944;28;981;-84
2021/04/17 09:04:11;;;;;;;;;;;;;;;21.55;25.48;98153.03;5055916;28;847;-85
2021/04/17 09:06:41;;;;;;;;;;;;;;;22.17;24.38;98162.44;5073180;28;894;-85
2021/04/17 09:09:15;;;;;;;;;;;;;;;22.32;24.04;98149.47;5073479;28;1187;-85
2021/04/17 09:11:41;;;;;;;;;;;;;;;21.89;24.98;98154.66;5090290;28;1325;-85
2021/04/17 09:14:25;;;;;;;;;;;;;;;21.74;25.11;98146.50;5107064;28;1003;-85
2021/04/17 09:16:51;;;;;;;;;;;;;;;21.59;25.23;98148.09;5107339;28;939;-85
2021/04/17 09:19:35;;;;;;;;;;;;;;;21.63;25.14;98148.81;5089233;28;1887;-85
2021/04/17 09:22:00;;;;;;;;;;;;;;;21.88;25.05;98150.22;5107764;28;606;-85
2021/04/17 09:24:26;;;;;;;;;;;;;;;22.28;24.46;98145.97;5089030;28;648;-85
2021/04/17 09:26:51;;;;;;;;;;;;;;;22.09;24.58;98146.84;5089650;28;670;-85
2021/04/17 09:29:17;;;;;;;;;;;;;;;21.70;25.04;98148.63;5072146;28;1034;-85
2021/04/17 09:31:42;;;;;;;;;;;;;;;21.44;25.19;98147.63;5089062;28;863;-85
2021/04/17 09:34:09;;;;;;;;;;;;;;;21.33;25.65;98147.88;5072159;28;1507;-85
2021/04/17 09:36:34;;;;;;;;;;;;;;;21.95;24.78;98144.38;5089328;28;686;-85
2021/04/17 09:39:00;;;;;;;;;;;;;;;22.31;24.02;98153.53;5072000;28;1058;-86
2021/04/17 09:41:44;;;;;;;;;;;;;;;22.21;24.30;98143.28;5073744;28;1895;-85
2021/04/17 09:44:11;;;;;;;;;;;;;;;21.70;25.07;98151.44;5089118;28;872;-85
2021/04/17 09:46:37;;;;;;;;;;;;;;;21.66;25.01;98145.09;5106447;28;835;-85
2021/04/17 09:49:02;;;;;;;;;;;;;;;21.68;25.24;98151.09;5088202;28;843;-85
2021/04/17 09:51:28;;;;;;;;;;;;;;;21.54;25.46;98151.44;5073141;28;1221;-85
2021/04/17 09:53:54;;;;;;;;;;;;;;;21.51;25.58;98152.34;5072587;28;618;-85
2021/04/17 09:56:41;;;;;;;;;;;;;;;21.43;25.59;98133.91;5088907;28;774;-85
2021/04/17 09:59:08;;;;;;;;;;;;;;;21.40;25.57;98137.63;5088501;28;980;-85
2021/04/17 10:02:00;;;;;;;;;;;;;;;21.30;25.93;98131.78;5054781;28;1944;-85
2021/04/17 10:04:44;;;;;;;;;;;;;;;21.42;25.73;98126.66;5101444;28;1033;-85
2021/04/17 10:07:09;;;;;;;;;;;;;;;21.30;25.92;98123.31;5089075;28;1522;-85
2021/04/17 10:09:34;;;;;;;;;;;;;;;21.44;25.76;98124.19;5071200;28;1216;-85
2021/04/17 10:12:04;;;;;;;;;;;;;;;21.49;25.54;98126.50;5104660;28;641;-85
2021/04/17 10:14:29;;;;;;;;;;;;;;;21.59;25.60;98126.22;5087913;28;958;-85
2021/04/17 10:16:55;;;;;;;;;;;;;;;22.16;24.75;98124.00;5088578;28;1375;-85
2021/04/17 10:19:21;;;;;;;;;;;;;;;22.38;24.32;98118.53;5105910;28;1968;-85
2021/04/17 10:21:47;;;;;;;;;;;;;;;22.03;24.59;98117.44;5072243;28;1159;-85
2021/04/17 10:24:16;;;;;;;;;;;;;;;21.63;25.46;98126.16;5088325;28;1232;-85
2021/04/17 10:26:54;;;;;;;;;;;;;;;21.38;25.77;98120.28;5087831;28;877;-85
2021/04/17 10:29:20;;;;;;;;;;;;;;;21.77;25.37;98119.34;5105133;28;889;-85
2021/04/17 10:31:45;;;;;;;;;;;;;;;22.28;24.71;98116.81;5088069;28;977;-85
2021/04/17 10:34:11;;;;;;;;;;;;;;;22.33;24.18;98122.72;5071310;28;807;-85
2021/04/17 10:36:36;;;;;;;;;;;;;;;21.89;24.99;98123.47;5088194;28;802;-85
2021/04/17 10:39:05;;;;;;;;;;;;;;;21.66;24.85;98127.28;5087290;28;932;-85
2021/04/17 10:41:31;;;;;;;;;;;;;;;21.55;25.22;98124.72;5088753;28;1901;-85
2021/04/17 10:44:13;;;;;;;;;;;;;;;21.63;25.46;98123.31;5070401;28;1307;-85
2021/04/17 10:46:45;;;;;;;;;;;;;;;22.19;24.72;98123.13;5087944;28;901;-85
2021/04/17 10:49:13;;;;;;;;;;;;;;;22.54;24.31;98120.53;5087907;28;650;-85
2021/04/17 10:51:39;;;;;;;;;;;;;;;21.96;24.89;98126.13;5088023;28;1172;-85
2021/04/17 10:54:04;;;;;;;;;;;;;;;21.79;25.02;98123.31;5070677;28;1486;-85
2021/04/17 10:56:31;;;;;;;;;;;;;;;21.59;25.53;98122.59;5087253;28;740;-85
2021/04/17 10:59:03;;;;;;;;;;;;;;;21.62;25.71;98130.22;5086615;28;981;-85
2021/04/17 11:01:37;;;;;;;;;;;;;;;21.59;25.67;98119.78;5086785;28;1976;-85
2021/04/17 11:04:18;;;;;;;;;;;;;;;21.54;25.58;98115.44;5088664;28;650;-84
2021/04/17 11:06:48;;;;;;;;;;;;;;;21.58;25.52;98109.69;5087818;28;686;-85
2021/04/17 11:09:15;;;;;;;;;;;;;;;21.58;25.64;98106.84;5071327;28;804;-85
2021/04/17 11:12:00;;;;;;;;;;;;;;;21.47;25.73;98101.47;5070288;28;1179;-84
2021/04/17 11:14:26;;;;;;;;;;;;;;;21.33;25.96;98096.94;5087211;28;856;-85
2021/04/17 11:16:53;;;;;;;;;;;;;;;21.39;26.03;98099.25;5070742;28;1121;-85
2021/04/17 11:19:25;;;;;;;;;;;;;;;21.46;25.83;98091.38;5070155;28;873;-85
2021/04/17 11:22:09;;;;;;;;;;;;;;;21.94;25.17;98088.94;5071439;28;1365;-85
2021/04/17 11:24:36;;;;;;;;;;;;;;;22.32;24.57;98098.44;5086496;28;781;-85
2021/04/17 11:27:01;;;;;;;;;;;;;;;22.08;24.72;98082.91;5087191;28;861;-86
2021/04/17 11:29:27;;;;;;;;;;;;;;;21.85;25.00;98075.41;5086967;28;893;-85
2021/04/17 11:31:53;;;;;;;;;;;;;;;21.82;25.26;98079.94;5087299;28;928;-85
2021/04/17 11:34:18;;;;;;;;;;;;;;;21.57;25.62;98079.78;5069112;28;1017;-85
2021/04/17 11:36:44;;;;;;;;;;;;;;;21.57;25.62;98076.97;5070589;28;782;-85
2021/04/17 11:39:09;;;;;;;;;;;;;;;21.60;25.47;98076.06;5070131;28;1175;-85
2021/04/17 11:41:35;;;;;;;;;;;;;;;21.52;25.80;98072.63;5087337;28;1985;-86
2021/04/17 11:44:02;;;;;;;;;;;;;;;21.55;25.88;98068.09;5069902;28;1317;-85
2021/04/17 11:46:27;;;;;;;;;;;;;;;21.57;25.65;98060.75;5070588;28;1168;-85
2021/04/17 11:48:53;;;;;;;;;;;;;;;21.64;25.73;98054.09;5087210;28;866;-85
2021/04/17 11:51:18;;;;;;;;;;;;;;;22.22;24.55;98059.84;5087039;28;964;-86
2021/04/17 11:53:44;;;;;;;;;;;;;;;22.38;24.56;98050.50;5069588;28;1176;-85
2021/04/17 11:56:09;;;;;;;;;;;;;;;21.90;25.31;98043.72;5070677;28;951;-85
2021/04/17 11:58:35;;;;;;;;;;;;;;;21.80;25.35;98039.91;5085831;28;1102;-85
2021/04/17 12:01:00;;;;;;;;;;;;;;;21.60;25.61;98033.59;5086796;28;1906;-85
2021/04/17 12:03:27;;;;;;;;;;;;;;;21.52;25.79;98072.63;5085748;28;949;-85
2021/04/17 12:05:53;;;;;;;;;;;;;;;22.04;25.07;98022.69;5087484;28;669;-85
2021/04/17 12:08:19;;;;;;;;;;;;;;;22.34;24.66;98022.25;5086157;28;845;-85
2021/04/17 12:10:45;;;;;;;;;;;;;;;22.19;24.57;98015.41;5086839;28;754;-85
2021/04/17 12:13:11;;;;;;;;;;;;;;;21.78;25.37;98014.09;5103530;28;971;-85
2021/04/17 12:15:36;;;;;;;;;;;;;;;21.70;25.52;98007.03;5085718;28;935;-84
2021/04/17 12:18:02;;;;;;;;;;;;;;;21.57;25.49;98004.13;5070058;28;1183;-85
2021/04/17 12:20:28;;;;;;;;;;;;;;;21.59;25.82;97995.19;5070070;28;1996;-85
2021/04/17 12:22:54;;;;;;;;;;;;;;;21.63;25.70;97990.22;5104043;28;626;-85
2021/04/17 12:25:19;;;;;;;;;;;;;;;21.61;25.77;97987.06;5085733;28;888;-85
2021/04/17 12:27:45;;;;;;;;;;;;;;;21.55;25.63;97983.16;5086184;28;941;-85
2021/04/17 12:30:10;;;;;;;;;;;;;;;21.56;26.00;97996.09;5085174;28;915;-85
2021/04/17 12:32:36;;;;;;;;;;;;;;;21.56;25.85;97998.94;5068834;28;939;-85
2021/04/17 12:35:01;;;;;;;;;;;;;;;21.51;25.80;97993.81;5085158;28;750;-85
2021/04/17 12:37:27;;;;;;;;;;;;;;;21.89;25.54;97991.13;5086841;28;667;-85
2021/04/17 12:39:52;;;;;;;;;;;;;;;22.35;24.70;97995.50;5069412;28;1989;-85
2021/04/17 12:42:18;;;;;;;;;;;;;;;22.51;24.51;97974.78;5069067;28;1091;-85
2021/04/17 12:44:43;;;;;;;;;;;;;;;22.10;24.72;97969.91;5085415;28;905;-85
2021/04/17 12:47:09;;;;;;;;;;;;;;;21.76;25.18;97976.13;5086611;28;905;-85
2021/04/17 12:49:34;;;;;;;;;;;;;;;21.64;25.70;97974.81;5086200;28;782;-85
2021/04/17 12:52:00;;;;;;;;;;;;;;;21.47;25.85;97964.78;5085991;28;996;-84
2021/04/17 12:54:25;;;;;;;;;;;;;;;21.50;25.99;97969.53;5084974;28;971;-84
2021/04/17 12:56:50;;;;;;;;;;;;;;;21.58;25.54;97976.63;5086010;28;988;-85
2021/04/17 12:59:16;;;;;;;;;;;;;;;21.50;25.95;97976.03;5085470;28;951;-85
2021/04/17 13:01:41;;;;;;;;;;;;;;;21.65;25.72;97981.28;5086292;28;1957;-85